WetterOnline ( https://www.wetteronline.de )

Wetter aktuell Kerschenbach

Aktuelles Wetter: Nürburg-Barweiler (488m)

6-stündlich | Neueste Meldungen
Ortszeit Temperatur Wetter
So, 21.07. 8:00 15.8° C wolkenlos
So, 21.07. 2:00 17.1° C wolkig
Sa, 20.07. 20:00 20.4° C wolkig
Sa, 20.07. 14:00 26.1° C wolkig
Sa, 20.07. 8:00 19.0° C leicht bewölkt
Sa, 20.07. 2:00 17.2° C wolkig
Fr, 19.07. 20:00 21.2° C wolkig
Fr, 19.07. 14:00 19.8° C wolkig
Ortszeit Temperatur Wetter
So, 21.07. 13:00 22.4° C leicht bewölkt
So, 21.07. 12:50 22.4° C leicht bewölkt
So, 21.07. 12:40 21.9° C leicht bewölkt
So, 21.07. 12:30 21.8° C leicht bewölkt
So, 21.07. 12:20 21.8° C leicht bewölkt
So, 21.07. 12:10 21.3° C leicht bewölkt
So, 21.07. 12:00 20.8° C leicht bewölkt
So, 21.07. 11:30 20.6° C fast wolkenlos
So, 21.07. 11:00 19.6° C fast wolkenlos
So, 21.07. 10:30 18.9° C fast wolkenlos
So, 21.07. 10:00 18.2° C wolkenlos
Ortszeit Relative Feuchte Sichtweite
So, 21.07. 8:00 75% 30 km
So, 21.07. 2:00 86% 40 km
Sa, 20.07. 20:00 68% 50 km
Sa, 20.07. 14:00 44% 22 km
Sa, 20.07. 8:00 70% 35 km
Sa, 20.07. 2:00 75% 40 km
Fr, 19.07. 20:00 53% 70 km
Fr, 19.07. 14:00 47% 24 km
Ortszeit Relative Feuchte Sichtweite
So, 21.07. 13:00 46% 30 km
So, 21.07. 12:50 46% -
So, 21.07. 12:40 48% -
So, 21.07. 12:30 50% 55 km
So, 21.07. 12:20 50% -
So, 21.07. 12:10 50% -
So, 21.07. 12:00 53% 65 km
So, 21.07. 11:30 53% 40 km
So, 21.07. 11:00 56% 35 km
So, 21.07. 10:30 58% 30 km
So, 21.07. 10:00 61% 30 km
Ortszeit Niederschlagsmenge Niederschlagsart
So, 21.07. 8:00 0.1 l/m2 in 12 Std. -
So, 21.07. 2:00 0.1 l/m2 in 6 Std. Regen
Sa, 20.07. 20:00 0.2 l/m2 in 12 Std. Regen
Sa, 20.07. 14:00 0.0 l/m2 in 6 Std. -
Sa, 20.07. 8:00 0.0 l/m2 in 12 Std. -
Sa, 20.07. 2:00 0.0 l/m2 in 6 Std. -
Fr, 19.07. 20:00 0.2 l/m2 in 12 Std. -
Fr, 19.07. 14:00 0.2 l/m2 in 6 Std. Regen
Ortszeit Niederschlagsmenge Niederschlagsart
So, 21.07. 13:00 0.0 l/m2 in 1 Std. -
So, 21.07. 12:50 keine Meldung -
So, 21.07. 12:40 keine Meldung -
So, 21.07. 12:30 0.0 l/m2 in 1 Std. -
So, 21.07. 12:20 keine Meldung -
So, 21.07. 12:10 keine Meldung -
So, 21.07. 12:00 0.0 l/m2 in 1 Std. -
So, 21.07. 11:30 0.0 l/m2 in 1 Std. -
So, 21.07. 11:00 0.0 l/m2 in 1 Std. -
So, 21.07. 10:30 0.0 l/m2 in 1 Std. -
So, 21.07. 10:00 0.0 l/m2 in 1 Std. -
Ortszeit Stärke Spitze Richtung
km/h Bft. km/h Grad Sektor
So, 21.07. 8:00 11 2 22 250° W
So, 21.07. 2:00 7 2 25 240° SW
Sa, 20.07. 20:00 11 2 47 280° W
Sa, 20.07. 14:00 18 3 36 210° SW
Sa, 20.07. 8:00 9 2 20 160° S
Sa, 20.07. 2:00 6 1 20 150° SO
Fr, 19.07. 20:00 11 2 32 230° SW
Fr, 19.07. 14:00 19 3 31 270° W
Ortszeit Stärke Spitze Richtung
km/h Bft. km/h Grad Sektor
So, 21.07. 13:00 13 3 31 290° W
So, 21.07. 12:50 13 3 - 290° W
So, 21.07. 12:40 14 3 - 300° NW
So, 21.07. 12:30 11 2 22 280° W
So, 21.07. 12:20 11 2 - 280° W
So, 21.07. 12:10 11 2 - 300° NW
So, 21.07. 12:00 11 2 25 260° W
So, 21.07. 11:30 11 2 25 280° W
So, 21.07. 11:00 11 2 20 300° NW
So, 21.07. 10:30 7 2 18 300° NW
So, 21.07. 10:00 11 2 22 260° W
Ortszeit Untergrenze Bedeckung Gattung
total tief tief mittel hoch
So, 21.07. 8:00 - 0/8 0/8 - - -
So, 21.07. 2:00 1500 m 7/8 4/8 - - -
Sa, 20.07. 20:00 2100 m 8/8 2/8 - - -
Sa, 20.07. 14:00 1470 m 8/8 1/8 - - -
Sa, 20.07. 8:00 9000 m 7/8 0/8 - - -
Sa, 20.07. 2:00 5400 m 8/8 2/8 - - -
Fr, 19.07. 20:00 1470 m 7/8 4/8 - - -
Fr, 19.07. 14:00 2700 m 5/8 5/8 - - -
Ortszeit Bedeckungsgrad in Achtel und Wolkenuntergrenze
So, 21.07. 13:00 2(1380m) 4(10500m)
So, 21.07. 12:50 2(1380m) 4(10500m)
So, 21.07. 12:40 2(1320m) 5(9000m)
So, 21.07. 12:30 4(1260m) 3(1440m) 6(10500m)
So, 21.07. 12:20 4(1260m)
So, 21.07. 12:10 4(1200m)
So, 21.07. 12:00 2(1170m) 4(8700m)
So, 21.07. 11:30 1(1080m)
So, 21.07. 11:00 1(9000m)
So, 21.07. 10:30 1(900m)
So, 21.07. 10:00 keine Wolken
Ortszeit Luftdruck NN (hPa) Tendenz (hPa in 3 Std.)
So, 21.07. 8:00 1020 + 1,9
So, 21.07. 2:00 1017 + 1,4
Sa, 20.07. 20:00 1013 + 2,1
Sa, 20.07. 14:00 1010 - 0,2
Sa, 20.07. 8:00 1012 - 0,7
Sa, 20.07. 2:00 1014 - 0,7
Fr, 19.07. 20:00 1014 - 0,4
Fr, 19.07. 14:00 1015 + 0,1
Ortszeit Luftdruck NN (hPa) Tendenz (hPa in 3 Std.)
So, 21.07. 13:00 1021 + 1,2
So, 21.07. 12:50 1021 keine Meldung
So, 21.07. 12:40 1021 keine Meldung
So, 21.07. 12:30 1020 + 1,3
So, 21.07. 12:20 1020 keine Meldung
So, 21.07. 12:10 1021 keine Meldung
So, 21.07. 12:00 1020 + 1,5
So, 21.07. 11:30 1020 + 1,6
So, 21.07. 11:00 1020 + 1,5
So, 21.07. 10:30 1020 + 1,3
So, 21.07. 10:00 1020 + 1,5
Ortszeit Schneehöhe (cm)
So, 21.07. 8:00 -
So, 21.07. 2:00 -
Sa, 20.07. 20:00 -
Sa, 20.07. 14:00 -
Sa, 20.07. 8:00 -
Sa, 20.07. 2:00 -
Fr, 19.07. 20:00 -
Fr, 19.07. 14:00 -
Ortszeit Schneehöhe (cm)
So, 21.07. 13:00 -
So, 21.07. 12:50 -
So, 21.07. 12:40 -
So, 21.07. 12:30 -
So, 21.07. 12:20 -
So, 21.07. 12:10 -
So, 21.07. 12:00 -
So, 21.07. 11:30 -
So, 21.07. 11:00 -
So, 21.07. 10:30 -
So, 21.07. 10:00 -
Link zu dieser Seite / Seite empfehlen

Das Wetter in ...